Terminal Aerodrome Forecast
Issued by NWS

Home | Current Version | Previous Version | Text Only | Print | Product List | Glossary On
Versions: 1 2 3 4 5 6 7 8 9 10 11 12 13 14 15 16 17 18 19 20 21 22 23 24 25
000
FTUS42 KJAX 040823 AAA
TAFVQQ
TAF AMD
KVQQ 040823Z 0408/0506 16003KT P6SM SCT200
     FM041000 00000KT 4SM BR SCT005 SCT080
      TEMPO 0410/0413 1SM BR OVC002
     FM041400 18005KT P6SM FEW005 BKN050
     FM041600 21011KT P6SM SCT250
     FM050000 19004KT P6SM SCT250=

USA.gov is the U.S. government's official web portal to all federal, state and local government web resources and services.